sensor_id;sensor_type;location;lat;lon;timestamp;P1;durP1;ratioP1;P2;durP2;ratioP2
8480;SDS011;4277;51.354;6.740;2023-02-10T00:01:54;42.07;;;26.80;;
8480;SDS011;4277;51.354;6.740;2023-02-10T00:04:20;48.03;;;28.53;;
8480;SDS011;4277;51.354;6.740;2023-02-10T00:06:46;46.67;;;28.57;;
8480;SDS011;4277;51.354;6.740;2023-02-10T00:09:12;45.97;;;27.60;;
8480;SDS011;4277;51.354;6.740;2023-02-10T00:11:39;47.40;;;29.10;;
8480;SDS011;4277;51.354;6.740;2023-02-10T00:14:24;45.70;;;27.40;;
8480;SDS011;4277;51.354;6.740;2023-02-10T00:16:51;49.03;;;28.63;;
8480;SDS011;4277;51.354;6.740;2023-02-10T00:19:17;48.03;;;28.97;;
8480;SDS011;4277;51.354;6.740;2023-02-10T00:21:43;49.33;;;29.43;;
8480;SDS011;4277;51.354;6.740;2023-02-10T00:24:09;51.30;;;30.57;;
8480;SDS011;4277;51.354;6.740;2023-02-10T00:26:35;47.57;;;29.17;;
8480;SDS011;4277;51.354;6.740;2023-02-10T00:29:01;49.23;;;29.97;;
8480;SDS011;4277;51.354;6.740;2023-02-10T00:31:27;49.03;;;29.47;;
8480;SDS011;4277;51.354;6.740;2023-02-10T00:33:53;50.13;;;31.07;;
8480;SDS011;4277;51.354;6.740;2023-02-10T00:36:19;48.37;;;30.93;;
8480;SDS011;4277;51.354;6.740;2023-02-10T00:38:46;57.47;;;33.17;;
8480;SDS011;4277;51.354;6.740;2023-02-10T00:41:14;51.17;;;31.43;;
8480;SDS011;4277;51.354;6.740;2023-02-10T00:43:40;46.80;;;28.50;;
8480;SDS011;4277;51.354;6.740;2023-02-10T00:46:07;50.20;;;31.43;;
8480;SDS011;4277;51.354;6.740;2023-02-10T00:48:33;48.00;;;31.00;;
8480;SDS011;4277;51.354;6.740;2023-02-10T00:51:00;44.37;;;29.90;;
8480;SDS011;4277;51.354;6.740;2023-02-10T00:53:26;48.33;;;30.77;;
8480;SDS011;4277;51.354;6.740;2023-02-10T00:55:52;45.80;;;30.77;;
8480;SDS011;4277;51.354;6.740;2023-02-10T00:58:18;45.97;;;30.33;;
8480;SDS011;4277;51.354;6.740;2023-02-10T01:00:44;45.73;;;28.53;;
8480;SDS011;4277;51.354;6.740;2023-02-10T01:03:10;45.03;;;27.70;;
8480;SDS011;4277;51.354;6.740;2023-02-10T01:05:36;44.53;;;28.93;;
8480;SDS011;4277;51.354;6.740;2023-02-10T01:08:02;43.97;;;29.03;;
8480;SDS011;4277;51.354;6.740;2023-02-10T01:10:28;41.73;;;27.73;;
8480;SDS011;4277;51.354;6.740;2023-02-10T01:12:54;43.20;;;28.93;;
8480;SDS011;4277;51.354;6.740;2023-02-10T01:15:20;48.20;;;29.53;;
8480;SDS011;4277;51.354;6.740;2023-02-10T01:17:46;49.27;;;29.47;;
8480;SDS011;4277;51.354;6.740;2023-02-10T01:20:12;45.90;;;31.10;;
8480;SDS011;4277;51.354;6.740;2023-02-10T01:22:38;43.77;;;29.33;;
8480;SDS011;4277;51.354;6.740;2023-02-10T01:25:04;45.83;;;29.77;;
8480;SDS011;4277;51.354;6.740;2023-02-10T01:27:30;43.57;;;29.33;;
8480;SDS011;4277;51.354;6.740;2023-02-10T01:29:56;46.07;;;29.13;;
8480;SDS011;4277;51.354;6.740;2023-02-10T01:32:22;48.63;;;29.17;;
8480;SDS011;4277;51.354;6.740;2023-02-10T01:34:47;47.00;;;29.60;;
8480;SDS011;4277;51.354;6.740;2023-02-10T01:37:13;45.53;;;29.00;;
8480;SDS011;4277;51.354;6.740;2023-02-10T01:39:39;48.33;;;29.50;;
8480;SDS011;4277;51.354;6.740;2023-02-10T01:42:05;46.20;;;30.17;;
8480;SDS011;4277;51.354;6.740;2023-02-10T01:46:58;47.07;;;28.50;;
8480;SDS011;4277;51.354;6.740;2023-02-10T01:49:25;46.13;;;28.40;;
8480;SDS011;4277;51.354;6.740;2023-02-10T01:51:58;44.13;;;28.30;;
8480;SDS011;4277;51.354;6.740;2023-02-10T01:54:26;50.20;;;30.97;;
8480;SDS011;4277;51.354;6.740;2023-02-10T01:56:55;48.20;;;29.57;;
8480;SDS011;4277;51.354;6.740;2023-02-10T01:59:21;46.20;;;29.87;;
8480;SDS011;4277;51.354;6.740;2023-02-10T02:01:48;46.03;;;28.83;;
8480;SDS011;4277;51.354;6.740;2023-02-10T02:04:15;50.23;;;30.60;;
8480;SDS011;4277;51.354;6.740;2023-02-10T02:06:41;46.73;;;29.67;;
8480;SDS011;4277;51.354;6.740;2023-02-10T02:09:07;40.97;;;26.90;;
8480;SDS011;4277;51.354;6.740;2023-02-10T02:22:14;44.23;;;29.30;;
8480;SDS011;4277;51.354;6.740;2023-02-10T02:29:59;45.20;;;28.20;;
8480;SDS011;4277;51.354;6.740;2023-02-10T02:32:32;46.87;;;29.20;;
8480;SDS011;4277;51.354;6.740;2023-02-10T02:35:01;45.40;;;28.97;;
8480;SDS011;4277;51.354;6.740;2023-02-10T02:37:32;44.47;;;28.60;;
8480;SDS011;4277;51.354;6.740;2023-02-10T02:39:59;43.00;;;28.70;;
8480;SDS011;4277;51.354;6.740;2023-02-10T02:42:31;45.70;;;29.23;;
8480;SDS011;4277;51.354;6.740;2023-02-10T02:45:01;46.47;;;30.20;;
8480;SDS011;4277;51.354;6.740;2023-02-10T02:50:11;48.37;;;29.43;;
8480;SDS011;4277;51.354;6.740;2023-02-10T02:52:47;50.20;;;31.27;;
8480;SDS011;4277;51.354;6.740;2023-02-10T02:58:01;47.67;;;29.53;;
8480;SDS011;4277;51.354;6.740;2023-02-10T03:00:29;49.53;;;30.93;;
8480;SDS011;4277;51.354;6.740;2023-02-10T03:02:57;46.20;;;29.53;;
8480;SDS011;4277;51.354;6.740;2023-02-10T03:05:27;48.80;;;30.27;;
8480;SDS011;4277;51.354;6.740;2023-02-10T03:07:53;47.20;;;28.67;;
8480;SDS011;4277;51.354;6.740;2023-02-10T03:10:19;47.37;;;30.27;;
8480;SDS011;4277;51.354;6.740;2023-02-10T03:12:46;48.10;;;30.47;;
8480;SDS011;4277;51.354;6.740;2023-02-10T03:15:12;44.63;;;28.53;;
8480;SDS011;4277;51.354;6.740;2023-02-10T03:17:38;47.23;;;29.70;;
8480;SDS011;4277;51.354;6.740;2023-02-10T03:20:04;46.30;;;28.77;;
8480;SDS011;4277;51.354;6.740;2023-02-10T03:22:31;43.07;;;28.93;;
8480;SDS011;4277;51.354;6.740;2023-02-10T03:24:56;48.27;;;30.10;;
8480;SDS011;4277;51.354;6.740;2023-02-10T03:27:22;45.43;;;28.17;;
8480;SDS011;4277;51.354;6.740;2023-02-10T03:29:48;44.97;;;29.10;;
8480;SDS011;4277;51.354;6.740;2023-02-10T03:32:15;45.47;;;29.43;;
8480;SDS011;4277;51.354;6.740;2023-02-10T03:34:41;48.17;;;29.20;;
8480;SDS011;4277;51.354;6.740;2023-02-10T03:37:07;47.40;;;29.23;;
8480;SDS011;4277;51.354;6.740;2023-02-10T03:39:33;44.20;;;28.83;;
8480;SDS011;4277;51.354;6.740;2023-02-10T03:41:59;47.13;;;29.50;;
8480;SDS011;4277;51.354;6.740;2023-02-10T03:44:25;47.07;;;29.27;;
8480;SDS011;4277;51.354;6.740;2023-02-10T03:46:51;43.50;;;28.20;;
8480;SDS011;4277;51.354;6.740;2023-02-10T03:49:17;42.33;;;28.00;;
8480;SDS011;4277;51.354;6.740;2023-02-10T03:51:43;42.53;;;27.37;;
8480;SDS011;4277;51.354;6.740;2023-02-10T03:54:09;45.37;;;28.67;;
8480;SDS011;4277;51.354;6.740;2023-02-10T03:56:35;44.90;;;28.20;;
8480;SDS011;4277;51.354;6.740;2023-02-10T03:59:01;46.67;;;28.73;;
8480;SDS011;4277;51.354;6.740;2023-02-10T04:01:27;41.50;;;27.03;;
8480;SDS011;4277;51.354;6.740;2023-02-10T04:03:53;40.63;;;25.90;;
8480;SDS011;4277;51.354;6.740;2023-02-10T04:06:19;40.63;;;26.27;;
8480;SDS011;4277;51.354;6.740;2023-02-10T04:08:46;46.73;;;29.37;;
8480;SDS011;4277;51.354;6.740;2023-02-10T04:11:12;46.37;;;28.97;;
8480;SDS011;4277;51.354;6.740;2023-02-10T04:13:38;40.80;;;27.00;;
8480;SDS011;4277;51.354;6.740;2023-02-10T04:16:09;40.80;;;26.33;;
8480;SDS011;4277;51.354;6.740;2023-02-10T04:18:35;41.73;;;25.70;;
8480;SDS011;4277;51.354;6.740;2023-02-10T04:21:02;41.97;;;26.90;;
8480;SDS011;4277;51.354;6.740;2023-02-10T04:23:28;43.30;;;28.53;;
8480;SDS011;4277;51.354;6.740;2023-02-10T04:25:54;49.47;;;29.50;;
8480;SDS011;4277;51.354;6.740;2023-02-10T04:28:20;47.43;;;29.40;;
8480;SDS011;4277;51.354;6.740;2023-02-10T04:30:50;40.37;;;26.73;;
8480;SDS011;4277;51.354;6.740;2023-02-10T04:33:16;40.93;;;26.30;;
8480;SDS011;4277;51.354;6.740;2023-02-10T04:35:42;42.73;;;26.33;;
8480;SDS011;4277;51.354;6.740;2023-02-10T04:38:09;48.67;;;30.50;;
8480;SDS011;4277;51.354;6.740;2023-02-10T04:40:35;49.70;;;28.93;;
8480;SDS011;4277;51.354;6.740;2023-02-10T04:43:01;46.93;;;28.80;;
8480;SDS011;4277;51.354;6.740;2023-02-10T04:45:27;48.43;;;29.17;;
8480;SDS011;4277;51.354;6.740;2023-02-10T04:47:53;48.20;;;30.13;;
8480;SDS011;4277;51.354;6.740;2023-02-10T04:50:19;49.03;;;29.57;;
8480;SDS011;4277;51.354;6.740;2023-02-10T04:52:45;50.47;;;30.97;;
8480;SDS011;4277;51.354;6.740;2023-02-10T04:55:10;45.73;;;30.30;;
8480;SDS011;4277;51.354;6.740;2023-02-10T04:57:36;47.60;;;30.53;;
8480;SDS011;4277;51.354;6.740;2023-02-10T05:00:03;47.37;;;30.00;;
8480;SDS011;4277;51.354;6.740;2023-02-10T05:02:29;52.77;;;32.57;;
8480;SDS011;4277;51.354;6.740;2023-02-10T05:04:55;53.83;;;31.40;;
8480;SDS011;4277;51.354;6.740;2023-02-10T05:07:21;56.63;;;32.20;;
8480;SDS011;4277;51.354;6.740;2023-02-10T05:09:47;49.73;;;31.37;;
8480;SDS011;4277;51.354;6.740;2023-02-10T05:12:13;52.87;;;31.37;;
8480;SDS011;4277;51.354;6.740;2023-02-10T05:14:39;51.00;;;32.07;;
8480;SDS011;4277;51.354;6.740;2023-02-10T05:17:05;54.53;;;31.30;;
8480;SDS011;4277;51.354;6.740;2023-02-10T05:19:31;51.93;;;30.23;;
8480;SDS011;4277;51.354;6.740;2023-02-10T05:21:57;53.60;;;32.63;;
8480;SDS011;4277;51.354;6.740;2023-02-10T05:24:23;54.50;;;33.20;;
8480;SDS011;4277;51.354;6.740;2023-02-10T05:26:49;48.87;;;30.77;;
8480;SDS011;4277;51.354;6.740;2023-02-10T05:29:15;54.33;;;33.20;;
8480;SDS011;4277;51.354;6.740;2023-02-10T05:31:41;53.23;;;31.13;;
8480;SDS011;4277;51.354;6.740;2023-02-10T05:34:07;52.40;;;31.13;;
8480;SDS011;4277;51.354;6.740;2023-02-10T05:36:33;51.80;;;32.17;;
8480;SDS011;4277;51.354;6.740;2023-02-10T05:38:59;50.90;;;31.00;;
8480;SDS011;4277;51.354;6.740;2023-02-10T05:41:44;49.73;;;29.43;;
8480;SDS011;4277;51.354;6.740;2023-02-10T05:44:10;48.87;;;29.93;;
8480;SDS011;4277;51.354;6.740;2023-02-10T05:46:36;48.97;;;29.23;;
8480;SDS011;4277;51.354;6.740;2023-02-10T05:49:02;52.83;;;30.20;;
8480;SDS011;4277;51.354;6.740;2023-02-10T05:51:28;51.73;;;30.53;;
8480;SDS011;4277;51.354;6.740;2023-02-10T05:53:54;49.50;;;30.53;;
8480;SDS011;4277;51.354;6.740;2023-02-10T05:56:20;51.70;;;30.93;;
8480;SDS011;4277;51.354;6.740;2023-02-10T05:58:46;46.70;;;28.90;;
8480;SDS011;4277;51.354;6.740;2023-02-10T06:01:12;44.70;;;27.87;;
8480;SDS011;4277;51.354;6.740;2023-02-10T06:03:38;47.60;;;28.57;;
8480;SDS011;4277;51.354;6.740;2023-02-10T06:06:03;47.43;;;28.20;;
8480;SDS011;4277;51.354;6.740;2023-02-10T06:08:29;49.60;;;30.77;;
8480;SDS011;4277;51.354;6.740;2023-02-10T06:10:56;48.03;;;27.83;;
8480;SDS011;4277;51.354;6.740;2023-02-10T06:13:21;45.80;;;28.80;;
8480;SDS011;4277;51.354;6.740;2023-02-10T06:15:47;46.73;;;28.73;;
8480;SDS011;4277;51.354;6.740;2023-02-10T06:18:14;45.67;;;27.13;;
8480;SDS011;4277;51.354;6.740;2023-02-10T06:20:40;47.30;;;27.57;;
8480;SDS011;4277;51.354;6.740;2023-02-10T06:23:05;47.63;;;27.90;;
8480;SDS011;4277;51.354;6.740;2023-02-10T06:25:31;46.60;;;27.73;;
8480;SDS011;4277;51.354;6.740;2023-02-10T06:28:00;51.43;;;27.90;;
8480;SDS011;4277;51.354;6.740;2023-02-10T06:30:26;43.50;;;27.07;;
8480;SDS011;4277;51.354;6.740;2023-02-10T06:32:52;46.43;;;28.03;;
8480;SDS011;4277;51.354;6.740;2023-02-10T06:35:18;52.77;;;29.93;;
8480;SDS011;4277;51.354;6.740;2023-02-10T06:37:44;53.43;;;30.73;;
8480;SDS011;4277;51.354;6.740;2023-02-10T06:40:10;46.07;;;28.33;;
8480;SDS011;4277;51.354;6.740;2023-02-10T06:42:36;48.40;;;28.70;;
8480;SDS011;4277;51.354;6.740;2023-02-10T06:45:02;1872.57;;;114.53;;
8480;SDS011;4277;51.354;6.740;2023-02-10T06:47:29;51.77;;;30.80;;
8480;SDS011;4277;51.354;6.740;2023-02-10T06:49:55;45.00;;;28.13;;
8480;SDS011;4277;51.354;6.740;2023-02-10T06:52:21;53.60;;;31.80;;
8480;SDS011;4277;51.354;6.740;2023-02-10T06:54:49;52.37;;;29.37;;
8480;SDS011;4277;51.354;6.740;2023-02-10T06:57:15;50.77;;;29.80;;
8480;SDS011;4277;51.354;6.740;2023-02-10T06:59:41;50.77;;;30.73;;
8480;SDS011;4277;51.354;6.740;2023-02-10T07:02:08;55.60;;;30.00;;
8480;SDS011;4277;51.354;6.740;2023-02-10T07:04:34;48.70;;;31.17;;
8480;SDS011;4277;51.354;6.740;2023-02-10T07:07:00;46.40;;;27.57;;
8480;SDS011;4277;51.354;6.740;2023-02-10T07:09:26;47.07;;;30.53;;
8480;SDS011;4277;51.354;6.740;2023-02-10T07:11:52;46.10;;;28.20;;
8480;SDS011;4277;51.354;6.740;2023-02-10T07:14:18;46.30;;;29.13;;
8480;SDS011;4277;51.354;6.740;2023-02-10T07:16:44;50.30;;;30.57;;
8480;SDS011;4277;51.354;6.740;2023-02-10T07:19:11;50.77;;;28.93;;
8480;SDS011;4277;51.354;6.740;2023-02-10T07:21:37;47.23;;;29.00;;
8480;SDS011;4277;51.354;6.740;2023-02-10T07:24:03;51.33;;;30.47;;
8480;SDS011;4277;51.354;6.740;2023-02-10T07:26:29;45.40;;;29.00;;
8480;SDS011;4277;51.354;6.740;2023-02-10T07:28:55;51.33;;;30.87;;
8480;SDS011;4277;51.354;6.740;2023-02-10T07:31:21;63.77;;;32.43;;
8480;SDS011;4277;51.354;6.740;2023-02-10T07:33:47;54.37;;;31.57;;
8480;SDS011;4277;51.354;6.740;2023-02-10T07:36:13;51.23;;;31.30;;
8480;SDS011;4277;51.354;6.740;2023-02-10T07:38:39;54.80;;;31.30;;
8480;SDS011;4277;51.354;6.740;2023-02-10T07:41:05;53.23;;;31.03;;
8480;SDS011;4277;51.354;6.740;2023-02-10T07:43:31;55.83;;;32.10;;
8480;SDS011;4277;51.354;6.740;2023-02-10T07:45:57;45.97;;;29.60;;
8480;SDS011;4277;51.354;6.740;2023-02-10T07:48:23;57.70;;;32.83;;
8480;SDS011;4277;51.354;6.740;2023-02-10T07:50:49;53.63;;;30.23;;
8480;SDS011;4277;51.354;6.740;2023-02-10T07:53:16;54.20;;;31.43;;
8480;SDS011;4277;51.354;6.740;2023-02-10T07:55:42;58.60;;;34.10;;
8480;SDS011;4277;51.354;6.740;2023-02-10T07:58:08;56.33;;;32.57;;
8480;SDS011;4277;51.354;6.740;2023-02-10T08:00:34;55.73;;;34.00;;
8480;SDS011;4277;51.354;6.740;2023-02-10T08:03:00;55.60;;;32.53;;
8480;SDS011;4277;51.354;6.740;2023-02-10T08:05:27;53.30;;;31.67;;
8480;SDS011;4277;51.354;6.740;2023-02-10T08:07:54;52.53;;;31.23;;
8480;SDS011;4277;51.354;6.740;2023-02-10T08:10:20;51.47;;;31.13;;
8480;SDS011;4277;51.354;6.740;2023-02-10T08:12:46;49.70;;;31.30;;
8480;SDS011;4277;51.354;6.740;2023-02-10T08:15:12;50.73;;;31.13;;
8480;SDS011;4277;51.354;6.740;2023-02-10T08:17:41;51.00;;;30.27;;
8480;SDS011;4277;51.354;6.740;2023-02-10T08:20:07;48.77;;;30.30;;
8480;SDS011;4277;51.354;6.740;2023-02-10T08:22:33;48.97;;;28.97;;
8480;SDS011;4277;51.354;6.740;2023-02-10T08:24:59;53.60;;;30.13;;
8480;SDS011;4277;51.354;6.740;2023-02-10T08:27:26;52.53;;;31.70;;
8480;SDS011;4277;51.354;6.740;2023-02-10T08:29:53;50.80;;;30.43;;
8480;SDS011;4277;51.354;6.740;2023-02-10T08:32:19;51.93;;;30.60;;
8480;SDS011;4277;51.354;6.740;2023-02-10T08:34:46;51.60;;;31.67;;
8480;SDS011;4277;51.354;6.740;2023-02-10T08:37:12;53.63;;;31.87;;
8480;SDS011;4277;51.354;6.740;2023-02-10T08:39:38;55.13;;;32.43;;
8480;SDS011;4277;51.354;6.740;2023-02-10T08:42:04;52.93;;;31.93;;
8480;SDS011;4277;51.354;6.740;2023-02-10T08:44:30;54.20;;;31.93;;
8480;SDS011;4277;51.354;6.740;2023-02-10T08:46:56;52.97;;;31.90;;
8480;SDS011;4277;51.354;6.740;2023-02-10T08:49:22;47.17;;;30.43;;
8480;SDS011;4277;51.354;6.740;2023-02-10T08:51:50;51.80;;;31.13;;
8480;SDS011;4277;51.354;6.740;2023-02-10T08:54:16;55.93;;;31.63;;
8480;SDS011;4277;51.354;6.740;2023-02-10T08:56:42;50.40;;;31.33;;
8480;SDS011;4277;51.354;6.740;2023-02-10T08:59:08;55.13;;;31.57;;
8480;SDS011;4277;51.354;6.740;2023-02-10T09:01:34;53.87;;;31.73;;
8480;SDS011;4277;51.354;6.740;2023-02-10T09:04:00;51.97;;;31.27;;
8480;SDS011;4277;51.354;6.740;2023-02-10T09:06:28;51.57;;;31.00;;
8480;SDS011;4277;51.354;6.740;2023-02-10T09:08:55;49.80;;;30.93;;
8480;SDS011;4277;51.354;6.740;2023-02-10T09:11:21;51.50;;;31.67;;
8480;SDS011;4277;51.354;6.740;2023-02-10T09:13:48;52.20;;;32.53;;
8480;SDS011;4277;51.354;6.740;2023-02-10T09:16:14;49.97;;;30.83;;
8480;SDS011;4277;51.354;6.740;2023-02-10T09:18:40;49.90;;;31.20;;
8480;SDS011;4277;51.354;6.740;2023-02-10T09:21:06;52.63;;;31.93;;
8480;SDS011;4277;51.354;6.740;2023-02-10T09:23:32;51.63;;;31.93;;
8480;SDS011;4277;51.354;6.740;2023-02-10T09:25:59;55.03;;;32.10;;
8480;SDS011;4277;51.354;6.740;2023-02-10T09:28:25;50.40;;;31.57;;
8480;SDS011;4277;51.354;6.740;2023-02-10T09:30:52;49.37;;;30.10;;
8480;SDS011;4277;51.354;6.740;2023-02-10T09:33:18;55.53;;;32.83;;
8480;SDS011;4277;51.354;6.740;2023-02-10T09:35:44;51.27;;;31.47;;
8480;SDS011;4277;51.354;6.740;2023-02-10T09:38:10;48.17;;;32.43;;
8480;SDS011;4277;51.354;6.740;2023-02-10T09:40:41;49.90;;;31.70;;
8480;SDS011;4277;51.354;6.740;2023-02-10T09:43:28;54.50;;;31.13;;
8480;SDS011;4277;51.354;6.740;2023-02-10T09:45:58;57.87;;;33.73;;
8480;SDS011;4277;51.354;6.740;2023-02-10T09:48:29;54.23;;;32.43;;
8480;SDS011;4277;51.354;6.740;2023-02-10T09:51:15;53.60;;;32.77;;
8480;SDS011;4277;51.354;6.740;2023-02-10T09:53:45;51.93;;;33.00;;
8480;SDS011;4277;51.354;6.740;2023-02-10T09:56:14;50.53;;;30.53;;
8480;SDS011;4277;51.354;6.740;2023-02-10T09:58:43;48.90;;;30.90;;
8480;SDS011;4277;51.354;6.740;2023-02-10T10:03:52;51.40;;;32.43;;
8480;SDS011;4277;51.354;6.740;2023-02-10T10:06:37;51.87;;;32.00;;
8480;SDS011;4277;51.354;6.740;2023-02-10T10:13:59;59.90;;;33.57;;
8480;SDS011;4277;51.354;6.740;2023-02-10T10:16:33;56.40;;;33.73;;
8480;SDS011;4277;51.354;6.740;2023-02-10T10:19:17;55.90;;;32.23;;
8480;SDS011;4277;51.354;6.740;2023-02-10T10:24:30;48.70;;;30.50;;
8480;SDS011;4277;51.354;6.740;2023-02-10T10:29:38;53.30;;;31.53;;
8480;SDS011;4277;51.354;6.740;2023-02-10T10:32:26;49.63;;;29.80;;
8480;SDS011;4277;51.354;6.740;2023-02-10T10:34:54;50.70;;;30.03;;
8480;SDS011;4277;51.354;6.740;2023-02-10T10:37:22;56.57;;;31.53;;
8480;SDS011;4277;51.354;6.740;2023-02-10T10:39:52;52.27;;;31.30;;
8480;SDS011;4277;51.354;6.740;2023-02-10T10:42:21;53.40;;;29.93;;
8480;SDS011;4277;51.354;6.740;2023-02-10T10:44:48;52.80;;;31.27;;
8480;SDS011;4277;51.354;6.740;2023-02-10T10:47:16;48.77;;;30.27;;
8480;SDS011;4277;51.354;6.740;2023-02-10T10:49:44;51.93;;;31.60;;
8480;SDS011;4277;51.354;6.740;2023-02-10T10:52:29;49.87;;;31.40;;
8480;SDS011;4277;51.354;6.740;2023-02-10T10:55:05;53.53;;;30.63;;
8480;SDS011;4277;51.354;6.740;2023-02-10T10:57:32;52.03;;;31.10;;
8480;SDS011;4277;51.354;6.740;2023-02-10T11:00:03;49.57;;;30.57;;
8480;SDS011;4277;51.354;6.740;2023-02-10T11:02:32;48.33;;;29.20;;
8480;SDS011;4277;51.354;6.740;2023-02-10T11:05:19;49.90;;;29.30;;
8480;SDS011;4277;51.354;6.740;2023-02-10T11:07:47;49.60;;;29.80;;
8480;SDS011;4277;51.354;6.740;2023-02-10T11:10:19;50.47;;;29.67;;
8480;SDS011;4277;51.354;6.740;2023-02-10T11:12:47;54.27;;;27.93;;
8480;SDS011;4277;51.354;6.740;2023-02-10T11:15:56;49.93;;;29.27;;
8480;SDS011;4277;51.354;6.740;2023-02-10T11:18:03;54.20;;;30.10;;
8480;SDS011;4277;51.354;6.740;2023-02-10T11:20:31;48.23;;;27.90;;
8480;SDS011;4277;51.354;6.740;2023-02-10T11:22:58;50.33;;;28.83;;
8480;SDS011;4277;51.354;6.740;2023-02-10T11:25:32;50.37;;;29.00;;
8480;SDS011;4277;51.354;6.740;2023-02-10T11:27:59;50.87;;;28.43;;
8480;SDS011;4277;51.354;6.740;2023-02-10T11:30:29;44.13;;;28.20;;
8480;SDS011;4277;51.354;6.740;2023-02-10T11:32:56;44.77;;;26.60;;
8480;SDS011;4277;51.354;6.740;2023-02-10T11:35:22;46.17;;;26.73;;
8480;SDS011;4277;51.354;6.740;2023-02-10T11:37:53;47.23;;;27.47;;
8480;SDS011;4277;51.354;6.740;2023-02-10T11:40:21;44.43;;;25.77;;
8480;SDS011;4277;51.354;6.740;2023-02-10T11:42:49;41.80;;;24.90;;
8480;SDS011;4277;51.354;6.740;2023-02-10T11:45:23;44.43;;;25.97;;
8480;SDS011;4277;51.354;6.740;2023-02-10T11:47:59;39.27;;;24.00;;
8480;SDS011;4277;51.354;6.740;2023-02-10T11:50:26;38.33;;;23.20;;
8480;SDS011;4277;51.354;6.740;2023-02-10T11:52:52;37.40;;;22.13;;
8480;SDS011;4277;51.354;6.740;2023-02-10T11:55:19;35.47;;;20.83;;
8480;SDS011;4277;51.354;6.740;2023-02-10T12:00:54;31.90;;;18.87;;
8480;SDS011;4277;51.354;6.740;2023-02-10T12:03:33;30.07;;;17.13;;
8480;SDS011;4277;51.354;6.740;2023-02-10T12:08:39;27.90;;;17.60;;
8480;SDS011;4277;51.354;6.740;2023-02-10T12:13:53;27.93;;;15.77;;
8480;SDS011;4277;51.354;6.740;2023-02-10T12:19:01;27.03;;;14.60;;
8480;SDS011;4277;51.354;6.740;2023-02-10T12:24:49;22.33;;;13.30;;
8480;SDS011;4277;51.354;6.740;2023-02-10T12:27:27;21.90;;;13.80;;
8480;SDS011;4277;51.354;6.740;2023-02-10T12:32:26;29.47;;;16.70;;
8480;SDS011;4277;51.354;6.740;2023-02-10T12:52:46;25.70;;;15.70;;
8480;SDS011;4277;51.354;6.740;2023-02-10T12:55:22;26.53;;;15.07;;
8480;SDS011;4277;51.354;6.740;2023-02-10T12:57:57;28.30;;;15.30;;
8480;SDS011;4277;51.354;6.740;2023-02-10T13:00:28;28.47;;;15.50;;
8480;SDS011;4277;51.354;6.740;2023-02-10T13:03:00;27.57;;;16.23;;
8480;SDS011;4277;51.354;6.740;2023-02-10T13:05:38;25.97;;;15.07;;
8480;SDS011;4277;51.354;6.740;2023-02-10T13:08:05;30.80;;;17.53;;
8480;SDS011;4277;51.354;6.740;2023-02-10T13:10:36;26.70;;;17.93;;
8480;SDS011;4277;51.354;6.740;2023-02-10T13:13:11;29.47;;;18.00;;
8480;SDS011;4277;51.354;6.740;2023-02-10T13:15:39;31.27;;;18.33;;
8480;SDS011;4277;51.354;6.740;2023-02-10T13:18:19;30.73;;;18.50;;
8480;SDS011;4277;51.354;6.740;2023-02-10T13:23:25;34.50;;;18.57;;
8480;SDS011;4277;51.354;6.740;2023-02-10T13:26:02;27.90;;;18.70;;
8480;SDS011;4277;51.354;6.740;2023-02-10T13:28:50;29.63;;;18.30;;
8480;SDS011;4277;51.354;6.740;2023-02-10T13:36:36;28.10;;;18.20;;
8480;SDS011;4277;51.354;6.740;2023-02-10T13:39:06;31.50;;;18.03;;
8480;SDS011;4277;51.354;6.740;2023-02-10T13:41:39;28.87;;;18.40;;
8480;SDS011;4277;51.354;6.740;2023-02-10T13:44:17;31.47;;;19.30;;
8480;SDS011;4277;51.354;6.740;2023-02-10T13:46:44;28.10;;;18.10;;
8480;SDS011;4277;51.354;6.740;2023-02-10T13:49:14;33.73;;;18.93;;
8480;SDS011;4277;51.354;6.740;2023-02-10T13:51:41;30.30;;;18.93;;
8480;SDS011;4277;51.354;6.740;2023-02-10T13:54:22;27.57;;;17.57;;
8480;SDS011;4277;51.354;6.740;2023-02-10T13:56:55;27.00;;;18.10;;
8480;SDS011;4277;51.354;6.740;2023-02-10T14:01:49;26.33;;;18.63;;
8480;SDS011;4277;51.354;6.740;2023-02-10T14:04:27;28.37;;;19.67;;
8480;SDS011;4277;51.354;6.740;2023-02-10T14:06:55;30.47;;;19.50;;
8480;SDS011;4277;51.354;6.740;2023-02-10T14:11:53;28.20;;;19.60;;
8480;SDS011;4277;51.354;6.740;2023-02-10T14:14:33;27.53;;;18.40;;
8480;SDS011;4277;51.354;6.740;2023-02-10T14:17:07;27.23;;;18.37;;
8480;SDS011;4277;51.354;6.740;2023-02-10T14:19:46;32.40;;;18.47;;
8480;SDS011;4277;51.354;6.740;2023-02-10T14:24:47;25.07;;;17.83;;
8480;SDS011;4277;51.354;6.740;2023-02-10T14:27:14;26.60;;;18.97;;
8480;SDS011;4277;51.354;6.740;2023-02-10T14:29:49;25.53;;;16.83;;
8480;SDS011;4277;51.354;6.740;2023-02-10T14:32:16;27.47;;;17.80;;
8480;SDS011;4277;51.354;6.740;2023-02-10T14:34:52;25.33;;;17.63;;
8480;SDS011;4277;51.354;6.740;2023-02-10T14:37:19;24.93;;;16.20;;
8480;SDS011;4277;51.354;6.740;2023-02-10T14:39:49;26.87;;;16.23;;
8480;SDS011;4277;51.354;6.740;2023-02-10T14:42:15;25.87;;;16.40;;
8480;SDS011;4277;51.354;6.740;2023-02-10T14:44:43;22.90;;;15.90;;
8480;SDS011;4277;51.354;6.740;2023-02-10T14:47:19;23.93;;;16.43;;
8480;SDS011;4277;51.354;6.740;2023-02-10T14:49:52;23.47;;;16.40;;
8480;SDS011;4277;51.354;6.740;2023-02-10T14:52:23;22.27;;;15.87;;
8480;SDS011;4277;51.354;6.740;2023-02-10T14:54:49;24.13;;;16.33;;
8480;SDS011;4277;51.354;6.740;2023-02-10T14:57:16;24.33;;;16.43;;
8480;SDS011;4277;51.354;6.740;2023-02-10T14:59:42;24.17;;;16.73;;
8480;SDS011;4277;51.354;6.740;2023-02-10T15:02:18;22.50;;;16.83;;
8480;SDS011;4277;51.354;6.740;2023-02-10T15:04:46;24.80;;;16.67;;
8480;SDS011;4277;51.354;6.740;2023-02-10T15:07:17;24.03;;;17.60;;
8480;SDS011;4277;51.354;6.740;2023-02-10T15:09:43;23.57;;;16.60;;
8480;SDS011;4277;51.354;6.740;2023-02-10T15:12:11;22.87;;;16.60;;
8480;SDS011;4277;51.354;6.740;2023-02-10T15:14:46;21.57;;;16.60;;
8480;SDS011;4277;51.354;6.740;2023-02-10T15:17:16;21.63;;;16.37;;
8480;SDS011;4277;51.354;6.740;2023-02-10T15:25:30;22.80;;;16.53;;
8480;SDS011;4277;51.354;6.740;2023-02-10T15:30:51;22.37;;;16.67;;
8480;SDS011;4277;51.354;6.740;2023-02-10T15:33:21;24.20;;;16.73;;
8480;SDS011;4277;51.354;6.740;2023-02-10T15:38:45;23.40;;;17.17;;
8480;SDS011;4277;51.354;6.740;2023-02-10T15:43:58;24.07;;;16.40;;
8480;SDS011;4277;51.354;6.740;2023-02-10T15:46:26;23.67;;;15.37;;
8480;SDS011;4277;51.354;6.740;2023-02-10T15:48:52;21.80;;;15.70;;
8480;SDS011;4277;51.354;6.740;2023-02-10T15:51:27;20.03;;;14.37;;
8480;SDS011;4277;51.354;6.740;2023-02-10T15:53:54;22.40;;;14.53;;
8480;SDS011;4277;51.354;6.740;2023-02-10T15:56:21;20.50;;;14.23;;
8480;SDS011;4277;51.354;6.740;2023-02-10T15:58:47;22.17;;;15.23;;
8480;SDS011;4277;51.354;6.740;2023-02-10T16:01:13;25.10;;;14.37;;
8480;SDS011;4277;51.354;6.740;2023-02-10T16:03:39;20.57;;;14.97;;
8480;SDS011;4277;51.354;6.740;2023-02-10T16:06:06;23.23;;;14.20;;
8480;SDS011;4277;51.354;6.740;2023-02-10T16:08:32;20.57;;;13.67;;
8480;SDS011;4277;51.354;6.740;2023-02-10T16:10:58;17.13;;;13.37;;
8480;SDS011;4277;51.354;6.740;2023-02-10T16:13:24;17.63;;;13.07;;
8480;SDS011;4277;51.354;6.740;2023-02-10T16:15:50;19.40;;;14.00;;
8480;SDS011;4277;51.354;6.740;2023-02-10T16:18:20;21.07;;;14.30;;
8480;SDS011;4277;51.354;6.740;2023-02-10T16:20:46;19.17;;;13.43;;
8480;SDS011;4277;51.354;6.740;2023-02-10T16:23:14;20.03;;;14.20;;
8480;SDS011;4277;51.354;6.740;2023-02-10T16:25:40;22.10;;;13.73;;
8480;SDS011;4277;51.354;6.740;2023-02-10T16:28:07;20.03;;;13.63;;
8480;SDS011;4277;51.354;6.740;2023-02-10T16:30:33;22.63;;;14.33;;
8480;SDS011;4277;51.354;6.740;2023-02-10T16:33:00;19.93;;;14.10;;
8480;SDS011;4277;51.354;6.740;2023-02-10T16:35:26;21.10;;;13.57;;